sensor_id;sensor_type;location;lat;lon;timestamp;P1;durP1;ratioP1;P2;durP2;ratioP2
28028;SDS011;15345;59.364;18.016;2023-03-15T00:00:08;0.60;;;0.60;;
28028;SDS011;15345;59.364;18.016;2023-03-15T00:01:28;0.80;;;0.60;;
28028;SDS011;15345;59.364;18.016;2023-03-15T00:02:47;1.33;;;0.70;;
28028;SDS011;15345;59.364;18.016;2023-03-15T00:04:06;1.05;;;0.85;;
28028;SDS011;15345;59.364;18.016;2023-03-15T00:05:25;0.82;;;0.70;;
28028;SDS011;15345;59.364;18.016;2023-03-15T00:06:44;0.68;;;0.50;;
28028;SDS011;15345;59.364;18.016;2023-03-15T00:08:03;0.80;;;0.80;;
28028;SDS011;15345;59.364;18.016;2023-03-15T00:09:22;0.50;;;0.50;;
28028;SDS011;15345;59.364;18.016;2023-03-15T00:10:42;0.85;;;0.50;;
28028;SDS011;15345;59.364;18.016;2023-03-15T00:12:01;0.57;;;0.50;;
28028;SDS011;15345;59.364;18.016;2023-03-15T00:13:21;2.03;;;0.63;;
28028;SDS011;15345;59.364;18.016;2023-03-15T00:14:40;0.50;;;0.50;;
28028;SDS011;15345;59.364;18.016;2023-03-15T00:16:00;0.88;;;0.55;;
28028;SDS011;15345;59.364;18.016;2023-03-15T00:17:20;0.55;;;0.50;;
28028;SDS011;15345;59.364;18.016;2023-03-15T00:18:40;0.60;;;0.60;;
28028;SDS011;15345;59.364;18.016;2023-03-15T00:19:59;0.88;;;0.73;;
28028;SDS011;15345;59.364;18.016;2023-03-15T00:21:19;0.60;;;0.60;;
28028;SDS011;15345;59.364;18.016;2023-03-15T00:22:38;0.75;;;0.75;;
28028;SDS011;15345;59.364;18.016;2023-03-15T00:23:57;2.92;;;0.95;;
28028;SDS011;15345;59.364;18.016;2023-03-15T00:25:16;0.70;;;0.60;;
28028;SDS011;15345;59.364;18.016;2023-03-15T00:26:35;0.85;;;0.50;;
28028;SDS011;15345;59.364;18.016;2023-03-15T00:27:54;0.63;;;0.52;;
28028;SDS011;15345;59.364;18.016;2023-03-15T00:29:13;0.65;;;0.40;;
28028;SDS011;15345;59.364;18.016;2023-03-15T00:30:32;0.88;;;0.68;;
28028;SDS011;15345;59.364;18.016;2023-03-15T00:31:50;0.98;;;0.57;;
28028;SDS011;15345;59.364;18.016;2023-03-15T00:33:10;1.35;;;0.50;;
28028;SDS011;15345;59.364;18.016;2023-03-15T00:34:31;0.75;;;0.70;;
28028;SDS011;15345;59.364;18.016;2023-03-15T00:35:51;0.88;;;0.70;;
28028;SDS011;15345;59.364;18.016;2023-03-15T00:37:11;0.82;;;0.60;;
28028;SDS011;15345;59.364;18.016;2023-03-15T00:38:30;0.88;;;0.60;;
28028;SDS011;15345;59.364;18.016;2023-03-15T00:39:49;1.48;;;0.60;;
28028;SDS011;15345;59.364;18.016;2023-03-15T00:41:10;0.60;;;0.52;;
28028;SDS011;15345;59.364;18.016;2023-03-15T00:42:29;0.70;;;0.70;;
28028;SDS011;15345;59.364;18.016;2023-03-15T00:43:48;1.95;;;0.60;;
28028;SDS011;15345;59.364;18.016;2023-03-15T00:45:09;1.15;;;0.45;;
28028;SDS011;15345;59.364;18.016;2023-03-15T00:46:28;2.55;;;0.50;;
28028;SDS011;15345;59.364;18.016;2023-03-15T00:47:47;1.45;;;0.50;;
28028;SDS011;15345;59.364;18.016;2023-03-15T00:49:07;2.40;;;0.60;;
28028;SDS011;15345;59.364;18.016;2023-03-15T00:50:26;2.13;;;0.47;;
28028;SDS011;15345;59.364;18.016;2023-03-15T00:51:45;0.80;;;0.50;;
28028;SDS011;15345;59.364;18.016;2023-03-15T00:53:03;0.95;;;0.60;;
28028;SDS011;15345;59.364;18.016;2023-03-15T00:54:22;1.77;;;0.75;;
28028;SDS011;15345;59.364;18.016;2023-03-15T00:55:42;2.45;;;0.60;;
28028;SDS011;15345;59.364;18.016;2023-03-15T00:57:01;1.08;;;0.60;;
28028;SDS011;15345;59.364;18.016;2023-03-15T00:58:20;1.20;;;0.55;;
28028;SDS011;15345;59.364;18.016;2023-03-15T00:59:39;0.95;;;0.70;;
28028;SDS011;15345;59.364;18.016;2023-03-15T01:00:58;1.02;;;0.60;;
28028;SDS011;15345;59.364;18.016;2023-03-15T01:02:18;1.20;;;0.55;;
28028;SDS011;15345;59.364;18.016;2023-03-15T01:03:40;0.82;;;0.50;;
28028;SDS011;15345;59.364;18.016;2023-03-15T01:04:59;1.55;;;0.70;;
28028;SDS011;15345;59.364;18.016;2023-03-15T01:06:20;0.57;;;0.57;;
28028;SDS011;15345;59.364;18.016;2023-03-15T01:07:39;3.33;;;0.65;;
28028;SDS011;15345;59.364;18.016;2023-03-15T01:08:58;0.47;;;0.47;;
28028;SDS011;15345;59.364;18.016;2023-03-15T01:10:19;0.60;;;0.40;;
28028;SDS011;15345;59.364;18.016;2023-03-15T01:11:37;0.47;;;0.47;;
28028;SDS011;15345;59.364;18.016;2023-03-15T01:12:56;0.50;;;0.50;;
28028;SDS011;15345;59.364;18.016;2023-03-15T01:14:16;0.85;;;0.70;;
28028;SDS011;15345;59.364;18.016;2023-03-15T01:15:36;0.60;;;0.60;;
28028;SDS011;15345;59.364;18.016;2023-03-15T01:16:55;0.57;;;0.57;;
28028;SDS011;15345;59.364;18.016;2023-03-15T01:18:14;0.90;;;0.50;;
28028;SDS011;15345;59.364;18.016;2023-03-15T01:19:33;2.05;;;0.70;;
28028;SDS011;15345;59.364;18.016;2023-03-15T01:20:52;0.50;;;0.50;;
28028;SDS011;15345;59.364;18.016;2023-03-15T01:22:11;0.68;;;0.55;;
28028;SDS011;15345;59.364;18.016;2023-03-15T01:23:30;0.50;;;0.50;;
28028;SDS011;15345;59.364;18.016;2023-03-15T01:24:49;2.10;;;0.50;;
28028;SDS011;15345;59.364;18.016;2023-03-15T01:26:12;1.15;;;0.95;;
28028;SDS011;15345;59.364;18.016;2023-03-15T01:27:31;1.25;;;0.80;;
28028;SDS011;15345;59.364;18.016;2023-03-15T01:28:51;1.15;;;0.40;;
28028;SDS011;15345;59.364;18.016;2023-03-15T01:30:10;1.42;;;0.55;;
28028;SDS011;15345;59.364;18.016;2023-03-15T01:31:29;0.60;;;0.50;;
28028;SDS011;15345;59.364;18.016;2023-03-15T01:32:48;2.45;;;0.68;;
28028;SDS011;15345;59.364;18.016;2023-03-15T01:34:07;1.45;;;0.60;;
28028;SDS011;15345;59.364;18.016;2023-03-15T01:35:26;0.52;;;0.45;;
28028;SDS011;15345;59.364;18.016;2023-03-15T01:36:48;1.20;;;0.60;;
28028;SDS011;15345;59.364;18.016;2023-03-15T01:38:07;1.33;;;0.63;;
28028;SDS011;15345;59.364;18.016;2023-03-15T01:39:25;1.10;;;0.50;;
28028;SDS011;15345;59.364;18.016;2023-03-15T01:40:44;1.85;;;0.45;;
28028;SDS011;15345;59.364;18.016;2023-03-15T01:42:03;0.93;;;0.50;;
28028;SDS011;15345;59.364;18.016;2023-03-15T01:43:23;0.60;;;0.50;;
28028;SDS011;15345;59.364;18.016;2023-03-15T01:44:53;1.98;;;0.60;;
28028;SDS011;15345;59.364;18.016;2023-03-15T01:47:30;0.55;;;0.50;;
28028;SDS011;15345;59.364;18.016;2023-03-15T01:50:09;0.80;;;0.60;;
28028;SDS011;15345;59.364;18.016;2023-03-15T01:51:31;0.63;;;0.52;;
28028;SDS011;15345;59.364;18.016;2023-03-15T01:52:50;2.47;;;0.60;;
28028;SDS011;15345;59.364;18.016;2023-03-15T01:54:18;0.80;;;0.50;;
28028;SDS011;15345;59.364;18.016;2023-03-15T01:55:39;1.65;;;0.82;;
28028;SDS011;15345;59.364;18.016;2023-03-15T01:57:09;1.40;;;0.40;;
28028;SDS011;15345;59.364;18.016;2023-03-15T01:58:30;0.32;;;0.32;;
28028;SDS011;15345;59.364;18.016;2023-03-15T01:59:54;2.22;;;0.50;;
28028;SDS011;15345;59.364;18.016;2023-03-15T02:01:14;0.68;;;0.40;;
28028;SDS011;15345;59.364;18.016;2023-03-15T02:02:33;3.95;;;0.60;;
28028;SDS011;15345;59.364;18.016;2023-03-15T02:03:54;0.65;;;0.52;;
28028;SDS011;15345;59.364;18.016;2023-03-15T02:05:16;1.67;;;0.45;;
28028;SDS011;15345;59.364;18.016;2023-03-15T02:06:36;0.65;;;0.50;;
28028;SDS011;15345;59.364;18.016;2023-03-15T02:07:56;0.85;;;0.50;;
28028;SDS011;15345;59.364;18.016;2023-03-15T02:09:15;0.45;;;0.45;;
28028;SDS011;15345;59.364;18.016;2023-03-15T02:10:36;0.95;;;0.50;;
28028;SDS011;15345;59.364;18.016;2023-03-15T02:11:58;3.58;;;0.57;;
28028;SDS011;15345;59.364;18.016;2023-03-15T02:13:18;0.68;;;0.50;;
28028;SDS011;15345;59.364;18.016;2023-03-15T02:14:40;0.65;;;0.40;;
28028;SDS011;15345;59.364;18.016;2023-03-15T02:16:00;0.70;;;0.35;;
28028;SDS011;15345;59.364;18.016;2023-03-15T02:17:19;0.40;;;0.30;;
28028;SDS011;15345;59.364;18.016;2023-03-15T02:18:42;2.40;;;0.75;;
28028;SDS011;15345;59.364;18.016;2023-03-15T02:21:25;2.17;;;0.55;;
28028;SDS011;15345;59.364;18.016;2023-03-15T02:22:54;2.17;;;0.52;;
28028;SDS011;15345;59.364;18.016;2023-03-15T02:24:34;1.52;;;0.40;;
28028;SDS011;15345;59.364;18.016;2023-03-15T02:27:18;0.40;;;0.32;;
28028;SDS011;15345;59.364;18.016;2023-03-15T02:28:38;1.17;;;0.43;;
28028;SDS011;15345;59.364;18.016;2023-03-15T02:29:57;2.05;;;0.80;;
28028;SDS011;15345;59.364;18.016;2023-03-15T02:31:16;0.50;;;0.40;;
28028;SDS011;15345;59.364;18.016;2023-03-15T02:32:35;1.10;;;0.40;;
28028;SDS011;15345;59.364;18.016;2023-03-15T02:33:54;0.82;;;0.50;;
28028;SDS011;15345;59.364;18.016;2023-03-15T02:35:21;1.27;;;0.40;;
28028;SDS011;15345;59.364;18.016;2023-03-15T02:36:40;0.35;;;0.30;;
28028;SDS011;15345;59.364;18.016;2023-03-15T02:37:59;0.38;;;0.32;;
28028;SDS011;15345;59.364;18.016;2023-03-15T02:39:20;1.55;;;0.50;;
28028;SDS011;15345;59.364;18.016;2023-03-15T02:40:39;0.60;;;0.50;;
28028;SDS011;15345;59.364;18.016;2023-03-15T02:41:58;1.10;;;0.55;;
28028;SDS011;15345;59.364;18.016;2023-03-15T02:43:21;2.20;;;0.40;;
28028;SDS011;15345;59.364;18.016;2023-03-15T02:46:01;1.95;;;0.60;;
28028;SDS011;15345;59.364;18.016;2023-03-15T02:47:25;2.38;;;0.50;;
28028;SDS011;15345;59.364;18.016;2023-03-15T02:48:45;1.38;;;0.68;;
28028;SDS011;15345;59.364;18.016;2023-03-15T02:50:04;1.23;;;0.60;;
28028;SDS011;15345;59.364;18.016;2023-03-15T02:51:26;1.27;;;0.40;;
28028;SDS011;15345;59.364;18.016;2023-03-15T02:52:45;2.75;;;0.80;;
28028;SDS011;15345;59.364;18.016;2023-03-15T02:54:05;2.45;;;0.30;;
28028;SDS011;15345;59.364;18.016;2023-03-15T02:55:24;0.98;;;0.40;;
28028;SDS011;15345;59.364;18.016;2023-03-15T02:56:43;2.17;;;0.60;;
28028;SDS011;15345;59.364;18.016;2023-03-15T02:58:02;0.63;;;0.60;;
28028;SDS011;15345;59.364;18.016;2023-03-15T02:59:21;1.02;;;0.50;;
28028;SDS011;15345;59.364;18.016;2023-03-15T03:00:40;1.55;;;0.50;;
28028;SDS011;15345;59.364;18.016;2023-03-15T03:01:58;0.90;;;0.52;;
28028;SDS011;15345;59.364;18.016;2023-03-15T03:03:17;0.52;;;0.32;;
28028;SDS011;15345;59.364;18.016;2023-03-15T03:04:36;2.03;;;0.57;;
28028;SDS011;15345;59.364;18.016;2023-03-15T03:05:55;2.92;;;0.60;;
28028;SDS011;15345;59.364;18.016;2023-03-15T03:07:14;0.88;;;0.32;;
28028;SDS011;15345;59.364;18.016;2023-03-15T03:08:33;0.60;;;0.60;;
28028;SDS011;15345;59.364;18.016;2023-03-15T03:09:53;0.70;;;0.50;;
28028;SDS011;15345;59.364;18.016;2023-03-15T03:11:12;1.20;;;0.52;;
28028;SDS011;15345;59.364;18.016;2023-03-15T03:12:32;1.13;;;0.50;;
28028;SDS011;15345;59.364;18.016;2023-03-15T03:13:50;1.50;;;0.50;;
28028;SDS011;15345;59.364;18.016;2023-03-15T03:15:10;1.13;;;0.40;;
28028;SDS011;15345;59.364;18.016;2023-03-15T03:16:29;2.17;;;0.40;;
28028;SDS011;15345;59.364;18.016;2023-03-15T03:17:49;0.70;;;0.50;;
28028;SDS011;15345;59.364;18.016;2023-03-15T03:19:09;1.20;;;0.47;;
28028;SDS011;15345;59.364;18.016;2023-03-15T03:20:30;0.93;;;0.50;;
28028;SDS011;15345;59.364;18.016;2023-03-15T03:21:53;2.35;;;0.50;;
28028;SDS011;15345;59.364;18.016;2023-03-15T03:23:12;0.90;;;0.70;;
28028;SDS011;15345;59.364;18.016;2023-03-15T03:24:31;0.60;;;0.40;;
28028;SDS011;15345;59.364;18.016;2023-03-15T03:25:52;0.38;;;0.38;;
28028;SDS011;15345;59.364;18.016;2023-03-15T03:27:12;0.47;;;0.30;;
28028;SDS011;15345;59.364;18.016;2023-03-15T03:28:32;2.20;;;0.32;;
28028;SDS011;15345;59.364;18.016;2023-03-15T03:29:51;0.77;;;0.50;;
28028;SDS011;15345;59.364;18.016;2023-03-15T03:31:17;1.52;;;0.60;;
28028;SDS011;15345;59.364;18.016;2023-03-15T03:32:36;0.70;;;0.70;;
28028;SDS011;15345;59.364;18.016;2023-03-15T03:33:55;0.40;;;0.40;;
28028;SDS011;15345;59.364;18.016;2023-03-15T03:35:14;1.65;;;0.50;;
28028;SDS011;15345;59.364;18.016;2023-03-15T03:36:33;1.08;;;0.90;;
28028;SDS011;15345;59.364;18.016;2023-03-15T03:37:53;2.00;;;0.40;;
28028;SDS011;15345;59.364;18.016;2023-03-15T03:39:12;0.63;;;0.40;;
28028;SDS011;15345;59.364;18.016;2023-03-15T03:40:31;0.88;;;0.55;;
28028;SDS011;15345;59.364;18.016;2023-03-15T03:41:50;0.52;;;0.30;;
28028;SDS011;15345;59.364;18.016;2023-03-15T03:43:09;0.90;;;0.55;;
28028;SDS011;15345;59.364;18.016;2023-03-15T03:44:28;0.80;;;0.60;;
28028;SDS011;15345;59.364;18.016;2023-03-15T03:45:47;2.00;;;0.90;;
28028;SDS011;15345;59.364;18.016;2023-03-15T03:47:06;0.88;;;0.63;;
28028;SDS011;15345;59.364;18.016;2023-03-15T03:48:25;4.18;;;0.85;;
28028;SDS011;15345;59.364;18.016;2023-03-15T03:49:44;1.17;;;0.40;;
28028;SDS011;15345;59.364;18.016;2023-03-15T03:51:03;3.22;;;0.73;;
28028;SDS011;15345;59.364;18.016;2023-03-15T03:52:23;0.40;;;0.40;;
28028;SDS011;15345;59.364;18.016;2023-03-15T03:53:43;0.88;;;0.50;;
28028;SDS011;15345;59.364;18.016;2023-03-15T03:55:02;0.68;;;0.43;;
28028;SDS011;15345;59.364;18.016;2023-03-15T03:56:21;0.82;;;0.60;;
28028;SDS011;15345;59.364;18.016;2023-03-15T03:57:41;0.73;;;0.50;;
28028;SDS011;15345;59.364;18.016;2023-03-15T03:59:00;0.82;;;0.52;;
28028;SDS011;15345;59.364;18.016;2023-03-15T04:00:18;1.63;;;0.40;;
28028;SDS011;15345;59.364;18.016;2023-03-15T04:01:37;2.17;;;0.50;;
28028;SDS011;15345;59.364;18.016;2023-03-15T04:02:56;1.02;;;0.60;;
28028;SDS011;15345;59.364;18.016;2023-03-15T04:04:15;3.30;;;0.57;;
28028;SDS011;15345;59.364;18.016;2023-03-15T04:05:34;2.00;;;0.30;;
28028;SDS011;15345;59.364;18.016;2023-03-15T04:06:53;3.20;;;0.50;;
28028;SDS011;15345;59.364;18.016;2023-03-15T04:08:12;0.77;;;0.50;;
28028;SDS011;15345;59.364;18.016;2023-03-15T04:09:31;1.35;;;0.60;;
28028;SDS011;15345;59.364;18.016;2023-03-15T04:10:55;1.63;;;0.60;;
28028;SDS011;15345;59.364;18.016;2023-03-15T04:12:16;0.77;;;0.52;;
28028;SDS011;15345;59.364;18.016;2023-03-15T04:13:35;4.10;;;0.52;;
28028;SDS011;15345;59.364;18.016;2023-03-15T04:14:54;1.98;;;0.63;;
28028;SDS011;15345;59.364;18.016;2023-03-15T04:16:13;0.40;;;0.30;;
28028;SDS011;15345;59.364;18.016;2023-03-15T04:17:33;0.88;;;0.47;;
28028;SDS011;15345;59.364;18.016;2023-03-15T04:18:52;1.85;;;0.45;;
28028;SDS011;15345;59.364;18.016;2023-03-15T04:20:13;1.02;;;0.50;;
28028;SDS011;15345;59.364;18.016;2023-03-15T04:21:33;3.80;;;0.60;;
28028;SDS011;15345;59.364;18.016;2023-03-15T04:22:53;0.95;;;0.40;;
28028;SDS011;15345;59.364;18.016;2023-03-15T04:24:12;0.95;;;0.57;;
28028;SDS011;15345;59.364;18.016;2023-03-15T04:25:32;2.35;;;0.65;;
28028;SDS011;15345;59.364;18.016;2023-03-15T04:26:50;1.13;;;0.80;;
28028;SDS011;15345;59.364;18.016;2023-03-15T04:28:16;0.68;;;0.43;;
28028;SDS011;15345;59.364;18.016;2023-03-15T04:29:35;1.27;;;0.60;;
28028;SDS011;15345;59.364;18.016;2023-03-15T04:30:54;1.70;;;0.45;;
28028;SDS011;15345;59.364;18.016;2023-03-15T04:32:16;0.82;;;0.60;;
28028;SDS011;15345;59.364;18.016;2023-03-15T04:33:35;1.45;;;0.80;;
28028;SDS011;15345;59.364;18.016;2023-03-15T04:34:54;1.17;;;0.60;;
28028;SDS011;15345;59.364;18.016;2023-03-15T04:36:13;1.35;;;0.73;;
28028;SDS011;15345;59.364;18.016;2023-03-15T04:37:36;0.82;;;0.60;;
28028;SDS011;15345;59.364;18.016;2023-03-15T04:38:55;2.78;;;0.95;;
28028;SDS011;15345;59.364;18.016;2023-03-15T04:40:24;1.05;;;0.80;;
28028;SDS011;15345;59.364;18.016;2023-03-15T04:41:43;1.20;;;0.57;;
28028;SDS011;15345;59.364;18.016;2023-03-15T04:43:03;0.85;;;0.50;;
28028;SDS011;15345;59.364;18.016;2023-03-15T04:44:22;0.68;;;0.68;;
28028;SDS011;15345;59.364;18.016;2023-03-15T04:45:44;1.88;;;0.47;;
28028;SDS011;15345;59.364;18.016;2023-03-15T04:47:03;1.02;;;0.70;;
28028;SDS011;15345;59.364;18.016;2023-03-15T04:48:22;2.70;;;0.82;;
28028;SDS011;15345;59.364;18.016;2023-03-15T04:49:41;1.73;;;0.60;;
28028;SDS011;15345;59.364;18.016;2023-03-15T04:51:00;1.30;;;0.90;;
28028;SDS011;15345;59.364;18.016;2023-03-15T04:52:20;0.77;;;0.50;;
28028;SDS011;15345;59.364;18.016;2023-03-15T04:53:40;1.27;;;1.15;;
28028;SDS011;15345;59.364;18.016;2023-03-15T04:55:00;1.17;;;0.63;;
28028;SDS011;15345;59.364;18.016;2023-03-15T04:56:19;1.85;;;0.60;;
28028;SDS011;15345;59.364;18.016;2023-03-15T04:57:38;1.10;;;0.70;;
28028;SDS011;15345;59.364;18.016;2023-03-15T04:58:57;1.10;;;0.68;;
28028;SDS011;15345;59.364;18.016;2023-03-15T05:00:16;1.73;;;0.90;;
28028;SDS011;15345;59.364;18.016;2023-03-15T05:01:35;2.90;;;0.70;;
28028;SDS011;15345;59.364;18.016;2023-03-15T05:02:55;0.75;;;0.65;;
28028;SDS011;15345;59.364;18.016;2023-03-15T05:04:14;2.33;;;0.60;;
28028;SDS011;15345;59.364;18.016;2023-03-15T05:05:32;1.02;;;0.70;;
28028;SDS011;15345;59.364;18.016;2023-03-15T05:06:51;0.88;;;0.45;;
28028;SDS011;15345;59.364;18.016;2023-03-15T05:08:10;1.58;;;0.63;;
28028;SDS011;15345;59.364;18.016;2023-03-15T05:09:30;0.95;;;0.70;;
28028;SDS011;15345;59.364;18.016;2023-03-15T05:10:56;0.68;;;0.50;;
28028;SDS011;15345;59.364;18.016;2023-03-15T05:12:15;1.80;;;0.50;;
28028;SDS011;15345;59.364;18.016;2023-03-15T05:13:33;1.10;;;0.70;;
28028;SDS011;15345;59.364;18.016;2023-03-15T05:14:53;2.47;;;0.77;;
28028;SDS011;15345;59.364;18.016;2023-03-15T05:16:12;0.90;;;0.60;;
28028;SDS011;15345;59.364;18.016;2023-03-15T05:17:31;1.55;;;0.73;;
28028;SDS011;15345;59.364;18.016;2023-03-15T05:18:51;3.25;;;0.90;;
28028;SDS011;15345;59.364;18.016;2023-03-15T05:20:12;1.15;;;0.68;;
28028;SDS011;15345;59.364;18.016;2023-03-15T05:21:31;0.77;;;0.63;;
28028;SDS011;15345;59.364;18.016;2023-03-15T05:22:50;2.10;;;1.05;;
28028;SDS011;15345;59.364;18.016;2023-03-15T05:24:12;7.18;;;1.13;;
28028;SDS011;15345;59.364;18.016;2023-03-15T05:25:31;1.63;;;0.80;;
28028;SDS011;15345;59.364;18.016;2023-03-15T05:26:51;1.42;;;0.50;;
28028;SDS011;15345;59.364;18.016;2023-03-15T05:28:11;3.55;;;2.05;;
28028;SDS011;15345;59.364;18.016;2023-03-15T05:29:35;0.98;;;0.88;;
28028;SDS011;15345;59.364;18.016;2023-03-15T05:30:54;0.73;;;0.60;;
28028;SDS011;15345;59.364;18.016;2023-03-15T05:32:13;3.28;;;0.60;;
28028;SDS011;15345;59.364;18.016;2023-03-15T05:33:32;2.85;;;0.60;;
28028;SDS011;15345;59.364;18.016;2023-03-15T05:34:53;1.65;;;0.93;;
28028;SDS011;15345;59.364;18.016;2023-03-15T05:36:12;0.65;;;0.65;;
28028;SDS011;15345;59.364;18.016;2023-03-15T05:37:33;0.85;;;0.82;;
28028;SDS011;15345;59.364;18.016;2023-03-15T05:38:53;0.80;;;0.65;;
28028;SDS011;15345;59.364;18.016;2023-03-15T05:40:12;1.38;;;0.88;;
28028;SDS011;15345;59.364;18.016;2023-03-15T05:41:31;1.45;;;0.70;;
28028;SDS011;15345;59.364;18.016;2023-03-15T05:42:51;1.02;;;0.70;;
28028;SDS011;15345;59.364;18.016;2023-03-15T05:44:10;2.58;;;0.80;;
28028;SDS011;15345;59.364;18.016;2023-03-15T05:45:29;0.77;;;0.70;;
28028;SDS011;15345;59.364;18.016;2023-03-15T05:46:47;0.65;;;0.60;;
28028;SDS011;15345;59.364;18.016;2023-03-15T05:48:06;1.00;;;0.60;;
28028;SDS011;15345;59.364;18.016;2023-03-15T05:49:25;0.90;;;0.70;;
28028;SDS011;15345;59.364;18.016;2023-03-15T05:50:44;1.30;;;1.00;;
28028;SDS011;15345;59.364;18.016;2023-03-15T05:52:03;2.45;;;0.98;;
28028;SDS011;15345;59.364;18.016;2023-03-15T05:53:22;4.20;;;0.77;;
28028;SDS011;15345;59.364;18.016;2023-03-15T05:54:41;2.67;;;0.60;;
28028;SDS011;15345;59.364;18.016;2023-03-15T05:56:00;3.42;;;0.80;;
28028;SDS011;15345;59.364;18.016;2023-03-15T05:57:19;0.60;;;0.60;;
28028;SDS011;15345;59.364;18.016;2023-03-15T05:58:38;2.35;;;0.70;;
28028;SDS011;15345;59.364;18.016;2023-03-15T05:59:58;1.48;;;0.70;;
28028;SDS011;15345;59.364;18.016;2023-03-15T06:01:17;0.90;;;0.60;;
28028;SDS011;15345;59.364;18.016;2023-03-15T06:02:36;1.88;;;0.82;;
28028;SDS011;15345;59.364;18.016;2023-03-15T06:03:55;1.30;;;0.70;;
28028;SDS011;15345;59.364;18.016;2023-03-15T06:05:14;4.18;;;0.68;;
28028;SDS011;15345;59.364;18.016;2023-03-15T06:06:33;1.17;;;0.70;;
28028;SDS011;15345;59.364;18.016;2023-03-15T06:07:52;1.20;;;0.55;;
28028;SDS011;15345;59.364;18.016;2023-03-15T06:09:14;2.65;;;1.10;;
28028;SDS011;15345;59.364;18.016;2023-03-15T06:10:33;2.92;;;0.93;;
28028;SDS011;15345;59.364;18.016;2023-03-15T06:11:51;2.80;;;1.67;;
28028;SDS011;15345;59.364;18.016;2023-03-15T06:13:11;2.50;;;0.88;;
28028;SDS011;15345;59.364;18.016;2023-03-15T06:14:30;1.27;;;0.52;;
28028;SDS011;15345;59.364;18.016;2023-03-15T06:15:50;1.70;;;0.80;;
28028;SDS011;15345;59.364;18.016;2023-03-15T06:17:09;0.75;;;0.60;;
28028;SDS011;15345;59.364;18.016;2023-03-15T06:18:28;2.97;;;0.57;;
28028;SDS011;15345;59.364;18.016;2023-03-15T06:19:47;1.27;;;0.70;;
28028;SDS011;15345;59.364;18.016;2023-03-15T06:21:07;1.38;;;0.70;;
28028;SDS011;15345;59.364;18.016;2023-03-15T06:22:26;2.10;;;0.70;;
28028;SDS011;15345;59.364;18.016;2023-03-15T06:23:44;0.82;;;0.60;;
28028;SDS011;15345;59.364;18.016;2023-03-15T06:25:04;1.95;;;0.60;;
28028;SDS011;15345;59.364;18.016;2023-03-15T06:26:24;2.25;;;0.80;;
28028;SDS011;15345;59.364;18.016;2023-03-15T06:27:43;1.73;;;0.70;;
28028;SDS011;15345;59.364;18.016;2023-03-15T06:29:02;2.08;;;1.02;;
28028;SDS011;15345;59.364;18.016;2023-03-15T06:30:21;2.75;;;0.75;;
28028;SDS011;15345;59.364;18.016;2023-03-15T06:31:40;2.30;;;0.73;;
28028;SDS011;15345;59.364;18.016;2023-03-15T06:32:59;0.80;;;0.70;;
28028;SDS011;15345;59.364;18.016;2023-03-15T06:34:19;1.00;;;0.60;;
28028;SDS011;15345;59.364;18.016;2023-03-15T06:35:39;1.63;;;0.60;;
28028;SDS011;15345;59.364;18.016;2023-03-15T06:36:58;3.10;;;0.70;;
28028;SDS011;15345;59.364;18.016;2023-03-15T06:38:18;0.82;;;0.77;;
28028;SDS011;15345;59.364;18.016;2023-03-15T06:39:37;1.70;;;0.77;;
28028;SDS011;15345;59.364;18.016;2023-03-15T06:40:56;2.03;;;1.25;;
28028;SDS011;15345;59.364;18.016;2023-03-15T06:42:18;0.60;;;0.57;;
28028;SDS011;15345;59.364;18.016;2023-03-15T06:43:37;2.38;;;1.10;;
28028;SDS011;15345;59.364;18.016;2023-03-15T06:44:56;2.70;;;0.85;;
28028;SDS011;15345;59.364;18.016;2023-03-15T06:46:16;3.67;;;1.13;;
28028;SDS011;15345;59.364;18.016;2023-03-15T06:47:35;0.88;;;0.68;;
28028;SDS011;15345;59.364;18.016;2023-03-15T06:48:54;2.03;;;0.90;;
28028;SDS011;15345;59.364;18.016;2023-03-15T06:50:13;1.17;;;0.63;;
28028;SDS011;15345;59.364;18.016;2023-03-15T06:51:32;3.22;;;0.90;;
28028;SDS011;15345;59.364;18.016;2023-03-15T06:52:52;1.30;;;0.50;;
28028;SDS011;15345;59.364;18.016;2023-03-15T06:54:13;2.47;;;0.70;;
28028;SDS011;15345;59.364;18.016;2023-03-15T06:55:31;4.70;;;0.80;;
28028;SDS011;15345;59.364;18.016;2023-03-15T06:56:50;0.98;;;0.70;;
28028;SDS011;15345;59.364;18.016;2023-03-15T06:58:11;2.13;;;0.80;;
28028;SDS011;15345;59.364;18.016;2023-03-15T06:59:31;1.15;;;0.93;;
28028;SDS011;15345;59.364;18.016;2023-03-15T07:00:50;3.33;;;1.30;;
28028;SDS011;15345;59.364;18.016;2023-03-15T07:02:14;2.63;;;0.85;;
28028;SDS011;15345;59.364;18.016;2023-03-15T07:04:51;2.42;;;1.15;;
28028;SDS011;15345;59.364;18.016;2023-03-15T07:06:10;7.75;;;1.00;;
28028;SDS011;15345;59.364;18.016;2023-03-15T07:07:29;1.52;;;0.70;;
28028;SDS011;15345;59.364;18.016;2023-03-15T07:08:50;3.08;;;1.23;;
28028;SDS011;15345;59.364;18.016;2023-03-15T07:10:09;2.70;;;0.80;;
28028;SDS011;15345;59.364;18.016;2023-03-15T07:11:28;2.90;;;1.05;;
28028;SDS011;15345;59.364;18.016;2023-03-15T07:12:47;2.75;;;0.80;;
28028;SDS011;15345;59.364;18.016;2023-03-15T07:14:06;2.15;;;0.70;;
28028;SDS011;15345;59.364;18.016;2023-03-15T07:15:24;2.25;;;0.73;;
28028;SDS011;15345;59.364;18.016;2023-03-15T07:16:43;2.10;;;0.88;;
28028;SDS011;15345;59.364;18.016;2023-03-15T07:18:04;3.30;;;1.20;;
28028;SDS011;15345;59.364;18.016;2023-03-15T07:19:24;1.20;;;0.80;;
28028;SDS011;15345;59.364;18.016;2023-03-15T07:20:43;1.38;;;0.80;;
28028;SDS011;15345;59.364;18.016;2023-03-15T07:22:02;2.70;;;1.30;;
28028;SDS011;15345;59.364;18.016;2023-03-15T07:23:21;2.58;;;0.82;;
28028;SDS011;15345;59.364;18.016;2023-03-15T07:24:40;4.57;;;1.27;;
28028;SDS011;15345;59.364;18.016;2023-03-15T07:25:59;6.50;;;2.38;;
28028;SDS011;15345;59.364;18.016;2023-03-15T07:27:18;4.00;;;2.40;;
28028;SDS011;15345;59.364;18.016;2023-03-15T07:28:37;3.33;;;2.45;;
28028;SDS011;15345;59.364;18.016;2023-03-15T07:29:56;4.30;;;2.63;;
28028;SDS011;15345;59.364;18.016;2023-03-15T07:31:15;6.15;;;2.80;;
28028;SDS011;15345;59.364;18.016;2023-03-15T07:32:34;4.55;;;3.00;;
28028;SDS011;15345;59.364;18.016;2023-03-15T07:33:52;6.20;;;2.80;;
28028;SDS011;15345;59.364;18.016;2023-03-15T07:35:12;8.60;;;3.20;;
28028;SDS011;15345;59.364;18.016;2023-03-15T07:36:31;7.47;;;2.85;;
28028;SDS011;15345;59.364;18.016;2023-03-15T07:37:50;4.75;;;2.90;;
28028;SDS011;15345;59.364;18.016;2023-03-15T07:39:09;7.10;;;2.92;;
28028;SDS011;15345;59.364;18.016;2023-03-15T07:40:29;4.18;;;2.55;;
28028;SDS011;15345;59.364;18.016;2023-03-15T07:41:48;3.78;;;1.90;;
28028;SDS011;15345;59.364;18.016;2023-03-15T07:43:07;2.20;;;2.00;;
28028;SDS011;15345;59.364;18.016;2023-03-15T07:44:26;2.83;;;2.20;;
28028;SDS011;15345;59.364;18.016;2023-03-15T07:45:45;5.72;;;3.03;;
28028;SDS011;15345;59.364;18.016;2023-03-15T07:47:04;5.93;;;2.08;;
28028;SDS011;15345;59.364;18.016;2023-03-15T07:48:22;5.22;;;3.33;;
28028;SDS011;15345;59.364;18.016;2023-03-15T07:49:42;6.05;;;2.70;;
28028;SDS011;15345;59.364;18.016;2023-03-15T07:51:00;3.65;;;2.60;;
28028;SDS011;15345;59.364;18.016;2023-03-15T07:52:19;8.20;;;2.58;;
28028;SDS011;15345;59.364;18.016;2023-03-15T07:53:39;4.13;;;2.65;;
28028;SDS011;15345;59.364;18.016;2023-03-15T07:54:58;3.30;;;2.50;;
28028;SDS011;15345;59.364;18.016;2023-03-15T07:56:17;5.72;;;2.67;;
28028;SDS011;15345;59.364;18.016;2023-03-15T07:57:35;7.65;;;2.85;;
28028;SDS011;15345;59.364;18.016;2023-03-15T07:58:55;4.05;;;2.58;;
28028;SDS011;15345;59.364;18.016;2023-03-15T08:00:14;6.90;;;2.72;;